| time (UTC) | temp C | wind direction | speed KPH | gust KPH | rain 1hr cm | rain 24hr cm | rain mn cm | humidity % | barometer mb |
| 20260510045316 | 19 | 315 | 16.1 | 22.5 | 0.18 | 0.23 | 0.23 | 79 | 1014.6 |
| 20260510044316 | 20 | 315 | 11.3 | 17.7 | 0.15 | 0.20 | 0.20 | 78 | 1014.1 |
| 20260510043315 | 21 | 315 | 6.4 | 12.9 | 0.10 | 0.15 | 0.13 | 72 | 1013.2 |
| 20260510042316 | 22 | 293 | 14.5 | 16.1 | 0.03 | 0.08 | 0.08 | 64 | 1013.1 |
| 20260510041315 | 21 | 293 | 30.6 | 45.1 | 0.00 | 0.05 | 0.05 | 67 | 1012.5 |
| 20260510040316 | 21 | 180 | 9.7 | 16.1 | 0.00 | 0.05 | 0.05 | 67 | 1008.9 |
| 20260510035315 | 21 | 158 | 16.1 | 24.1 | 0.03 | 0.05 | 0.05 | 66 | 1007.8 |
| 20260510034315 | 21 | 158 | 9.7 | 14.5 | 0.03 | 0.05 | 0.05 | 67 | 1007.6 |
| 20260510033315 | 21 | 158 | 17.7 | 27.4 | 0.03 | 0.05 | 0.05 | 69 | 1007.6 |
| 20260510032315 | 21 | 180 | 17.7 | 25.7 | 0.03 | 0.05 | 0.05 | 70 | 1008.0 |
| 20260510031316 | 22 | 158 | 14.5 | 24.1 | 0.03 | 0.05 | 0.05 | 67 | 1007.5 |
| 20260510030316 | 22 | 158 | 19.3 | 32.2 | 0.03 | 0.05 | 0.05 | 66 | 1009.7 |
| 20260510025315 | 22 | 180 | 19.3 | 32.2 | 0.00 | 0.03 | 0.03 | 65 | 1010.9 |
| 20260510024315 | 22 | 180 | 16.1 | 20.9 | 0.00 | 0.03 | 0.03 | 64 | 1010.8 |
| 20260510023315 | 22 | 270 | 6.4 | 9.7 | 0.00 | 0.03 | 0.03 | 66 | 1010.1 |
| 20260510022335 | 22 | 90 | 6.4 | 8.0 | 0.00 | 0.03 | 0.03 | 64 | 1008.5 |
| 20260510021315 | 22 | 180 | 11.3 | 17.7 | 0.00 | 0.03 | 0.03 | 67 | 1008.1 |
| 20260510020316 | 22 | 158 | 9.7 | 11.3 | 0.00 | 0.03 | 0.03 | 67 | 1008.5 |
| 20260510015335 | 22 | 225 | 6.4 | 8.0 | 0.00 | 0.03 | 0.03 | 68 | 1008.5 |
| 20260510014315 | 22 | 0.0 | 0.0 | 0.00 | 0.03 | 0.03 | 64 | 1008.0 | |
| 20260510013315 | 23 | 0.0 | 0.0 | 0.00 | 0.03 | 0.03 | 62 | 1008.0 | |
| 20260510012315 | 23 | 90 | 1.6 | 3.2 | 0.00 | 0.03 | 0.03 | 61 | 1007.1 |
| 20260510011317 | 23 | 0.0 | 0.0 | 0.00 | 0.03 | 0.03 | 60 | 1007.2 | |
| 20260510010317 | 23 | 0.0 | 0.0 | 0.00 | 0.03 | 0.03 | 57 | 1007.2 | |
| 20260510005337 | 24 | 135 | 1.6 | 3.2 | 0.00 | 0.03 | 0.03 | 56 | 1007.0 |
| 20260510004317 | 25 | 0.0 | 0.0 | 0.00 | 0.03 | 0.03 | 55 | 1007.3 | |
| 20260510003317 | 25 | 0.0 | 1.6 | 0.00 | 0.03 | 0.03 | 53 | 1007.2 | |
| 20260510002317 | 25 | 135 | 3.2 | 4.8 | 0.00 | 0.03 | 0.03 | 52 | 1006.9 |
| 20260510001317 | 26 | 135 | 1.6 | 3.2 | 0.00 | 0.03 | 0.03 | 50 | 1007.1 |
| 20260510000337 | 26 | 113 | 1.6 | 3.2 | 0.00 | 0.03 | 0.03 | 48 | 1007.2 |
| 20260509235317 | 26 | 113 | 4.8 | 9.7 | 0.00 | 0.36 | 0.03 | 45 | 1007.2 |
| 20260509234357 | 27 | 113 | 3.2 | 4.8 | 0.00 | 0.38 | 0.03 | 43 | 1007.4 |
| 20260509233337 | 27 | 90 | 4.8 | 6.4 | 0.00 | 1.02 | 0.03 | 42 | 1007.4 |
| 20260509232317 | 27 | 113 | 6.4 | 9.7 | 0.00 | 1.07 | 0.03 | 41 | 1007.7 |
| 20260509231317 | 28 | 113 | 4.8 | 11.3 | 0.00 | 1.07 | 0.03 | 39 | 1007.9 |
| 20260509230317 | 28 | 113 | 4.8 | 9.7 | 0.00 | 1.07 | 0.03 | 39 | 1008.1 |
| 20260509225317 | 28 | 90 | 9.7 | 12.9 | 0.00 | 1.07 | 0.03 | 39 | 1008.3 |
| 20260509224317 | 28 | 90 | 6.4 | 9.7 | 0.00 | 1.07 | 0.03 | 40 | 1008.5 |
| 20260509223317 | 28 | 113 | 6.4 | 11.3 | 0.00 | 1.07 | 0.03 | 41 | 1008.5 |
| 20260509222337 | 28 | 90 | 8.0 | 14.5 | 0.00 | 1.07 | 0.03 | 40 | 1008.6 |
| 20260509221338 | 28 | 113 | 4.8 | 9.7 | 0.00 | 1.07 | 0.03 | 33 | 1008.6 |
| 20260509220317 | 28 | 90 | 8.0 | 12.9 | 0.00 | 1.07 | 0.03 | 34 | 1008.6 |
| 20260509215316 | 28 | 45 | 3.2 | 6.4 | 0.00 | 1.07 | 0.03 | 38 | 1008.7 |
| 20260509214316 | 28 | 90 | 8.0 | 11.3 | 0.00 | 1.07 | 0.03 | 34 | 1008.7 |
| 20260509213317 | 28 | 113 | 9.7 | 12.9 | 0.00 | 1.07 | 0.03 | 29 | 1008.8 |
| 20260509212317 | 28 | 135 | 1.6 | 4.8 | 0.00 | 1.07 | 0.03 | 29 | 1008.8 |
| 20260509211337 | 27 | 68 | 6.4 | 9.7 | 0.00 | 1.07 | 0.03 | 36 | 1008.9 |
| 20260509210317 | 27 | 113 | 3.2 | 4.8 | 0.00 | 1.07 | 0.03 | 37 | 1008.8 |
| 20260509205316 | 28 | 90 | 6.4 | 11.3 | 0.00 | 1.07 | 0.03 | 35 | 1009.0 |
| 20260509204337 | 27 | 113 | 9.7 | 12.9 | 0.00 | 1.07 | 0.03 | 39 | 1009.2 |
| 20260509203316 | 28 | 90 | 4.8 | 6.4 | 0.00 | 1.07 | 0.03 | 37 | 1009.3 |
| 20260509202316 | 27 | 68 | 4.8 | 11.3 | 0.00 | 1.07 | 0.03 | 39 | 1009.4 |
| 20260509201316 | 27 | 90 | 3.2 | 6.4 | 0.00 | 1.07 | 0.03 | 36 | 1009.4 |
| 20260509200437 | 27 | 68 | 3.2 | 4.8 | 0.00 | 1.07 | 0.03 | 36 | 1009.5 |
| 20260509195317 | 27 | 90 | 9.7 | 12.9 | 0.00 | 1.07 | 0.03 | 38 | 1009.6 |
| 20260509194316 | 27 | 135 | 3.2 | 6.4 | 0.00 | 1.07 | 0.03 | 39 | 1009.7 |
| 20260509193317 | 27 | 90 | 1.6 | 3.2 | 0.00 | 1.07 | 0.03 | 41 | 1009.7 |
| 20260509192316 | 27 | 135 | 6.4 | 9.7 | 0.00 | 1.07 | 0.03 | 46 | 1009.7 |
| 20260509191316 | 27 | 45 | 3.2 | 6.4 | 0.00 | 1.07 | 0.03 | 41 | 1009.9 |
| 20260509190317 | 26 | 90 | 4.8 | 6.4 | 0.00 | 1.07 | 0.03 | 46 | 1010.1 |
| 20260509185316 | 26 | 113 | 4.8 | 6.4 | 0.00 | 1.07 | 0.03 | 48 | 1010.1 |
| 20260509184316 | 26 | 68 | 4.8 | 6.4 | 0.00 | 1.07 | 0.03 | 47 | 1010.3 |
| 20260509183316 | 26 | 338 | 3.2 | 6.4 | 0.00 | 1.07 | 0.03 | 47 | 1010.5 |
| 20260509182316 | 26 | 158 | 6.4 | 9.7 | 0.00 | 1.07 | 0.03 | 45 | 1010.8 |
| 20260509181336 | 26 | 90 | 8.0 | 11.3 | 0.00 | 1.07 | 0.03 | 47 | 1010.7 |
| 20260509180317 | 26 | 68 | 4.8 | 6.4 | 0.00 | 1.07 | 0.03 | 44 | 1010.9 |
| 20260509175316 | 26 | 225 | 3.2 | 6.4 | 0.00 | 1.07 | 0.03 | 50 | 1011.1 |
| 20260509174336 | 25 | 68 | 6.4 | 8.0 | 0.00 | 1.07 | 0.03 | 55 | 1011.2 |
| 20260509173316 | 25 | 90 | 6.4 | 9.7 | 0.00 | 1.07 | 0.03 | 54 | 1011.3 |
| 20260509172356 | 26 | 113 | 4.8 | 9.7 | 0.00 | 1.07 | 0.03 | 62 | 1011.5 |
| 20260509171316 | 25 | 68 | 1.6 | 8.0 | 0.00 | 1.07 | 0.03 | 62 | 1011.4 |
| 20260509170316 | 25 | 270 | 3.2 | 4.8 | 0.00 | 1.07 | 0.03 | 65 | 1011.4 |
| 20260509165316 | 25 | 0.0 | 3.2 | 0.00 | 1.07 | 0.03 | 66 | 1011.5 | |
| 20260509164416 | 25 | 180 | 3.2 | 8.0 | 0.00 | 1.07 | 0.03 | 67 | 1011.6 |
| 20260509163317 | 23 | 135 | 3.2 | 8.0 | 0.00 | 1.07 | 0.03 | 69 | 1011.4 |
| 20260509162316 | 23 | 135 | 4.8 | 6.4 | 0.00 | 1.07 | 0.03 | 69 | 1011.4 |
| 20260509161316 | 23 | 113 | 3.2 | 4.8 | 0.00 | 1.07 | 0.03 | 76 | 1011.6 |
| 20260509160316 | 23 | 203 | 8.0 | 12.9 | 0.00 | 1.07 | 0.03 | 75 | 1011.5 |
| 20260509155316 | 22 | 113 | 4.8 | 6.4 | 0.00 | 1.07 | 0.03 | 76 | 1011.6 |
| 20260509154315 | 22 | 90 | 4.8 | 6.4 | 0.00 | 1.07 | 0.03 | 79 | 1011.5 |
| 20260509153315 | 22 | 158 | 6.4 | 9.7 | 0.00 | 1.07 | 0.03 | 77 | 1011.6 |
| 20260509152315 | 21 | 113 | 4.8 | 9.7 | 0.00 | 1.07 | 0.03 | 79 | 1011.4 |
| 20260509151315 | 21 | 113 | 8.0 | 11.3 | 0.00 | 1.07 | 0.03 | 80 | 1011.4 |
| 20260509150416 | 21 | 135 | 4.8 | 9.7 | 0.00 | 1.07 | 0.03 | 80 | 1011.3 |
| 20260509145316 | 21 | 113 | 4.8 | 6.4 | 0.00 | 1.07 | 0.03 | 84 | 1011.5 |
| 20260509144315 | 21 | 90 | 6.4 | 9.7 | 0.00 | 1.07 | 0.03 | 86 | 1011.4 |
| 20260509143316 | 20 | 0.0 | 1.6 | 0.00 | 1.07 | 0.03 | 89 | 1011.3 | |
| 20260509142316 | 19 | 180 | 4.8 | 6.4 | 0.03 | 1.07 | 0.03 | 90 | 1011.3 |
| 20260509141315 | 19 | 113 | 1.6 | 3.2 | 0.03 | 1.07 | 0.03 | 93 | 1011.4 |
| 20260509140315 | 18 | 0.0 | 3.2 | 0.03 | 1.07 | 0.03 | 93 | 1011.2 | |
| 20260509135316 | 18 | 0.0 | 0.0 | 0.03 | 1.07 | 0.03 | 94 | 1011.0 | |
| 20260509134315 | 17 | 113 | 3.2 | 3.2 | 0.03 | 1.07 | 0.03 | 94 | 1010.9 |
| 20260509133315 | 16 | 0.0 | 1.6 | 0.03 | 1.07 | 0.03 | 94 | 1010.8 | |
| 20260509132315 | 16 | 0.0 | 0.0 | 0.00 | 1.04 | 0.00 | 94 | 1010.7 | |
| 20260509131315 | 16 | 0.0 | 0.0 | 0.00 | 1.04 | 0.00 | 94 | 1010.4 | |
| 20260509130315 | 15 | 0.0 | 0.0 | 0.00 | 1.04 | 0.00 | 94 | 1010.2 | |
| 20260509125316 | 14 | 113 | 3.2 | 4.8 | 0.00 | 1.04 | 0.00 | 94 | 1010.1 |
| 20260509124315 | 14 | 0.0 | 0.0 | 0.00 | 1.04 | 0.00 | 94 | 1009.9 | |
| 20260509123317 | 13 | 0.0 | 0.0 | 0.00 | 1.04 | 0.00 | 94 | 1009.9 | |
| 20260509122317 | 13 | 0.0 | 0.0 | 0.00 | 1.04 | 0.00 | 94 | 1009.8 | |
| 20260509121317 | 12 | 0.0 | 0.0 | 0.00 | 1.04 | 0.00 | 93 | 1009.5 | |
| 20260509120317 | 12 | 0.0 | 0.0 | 0.00 | 1.04 | 0.00 | 94 | 1009.4 | |
| 20260509115317 | 12 | 135 | 1.6 | 3.2 | 0.00 | 1.04 | 0.00 | 93 | 1009.8 |
| 20260509114317 | 12 | 0.0 | 0.0 | 0.00 | 1.04 | 0.00 | 93 | 1009.7 | |
| 20260509113317 | 12 | 0.0 | 0.0 | 0.00 | 1.04 | 0.00 | 93 | 1009.7 | |
| 20260509112317 | 12 | 0.0 | 0.0 | 0.00 | 1.04 | 0.00 | 93 | 1009.7 | |
| 20260509111317 | 13 | 0.0 | 0.0 | 0.00 | 1.04 | 0.00 | 93 | 1009.6 | |
| 20260509110317 | 13 | 0.0 | 0.0 | 0.00 | 1.04 | 0.00 | 93 | 1009.4 | |
| 20260509105317 | 13 | 0.0 | 0.0 | 0.00 | 1.04 | 0.00 | 93 | 1009.4 | |
| 20260509104318 | 12 | 0.0 | 0.0 | 0.00 | 1.04 | 0.00 | 93 | 1009.4 | |
| 20260509103317 | 12 | 0.0 | 0.0 | 0.00 | 1.04 | 0.00 | 93 | 1009.6 | |
| 20260509102317 | 12 | 0.0 | 0.0 | 0.00 | 1.04 | 0.00 | 93 | 1009.9 | |
| 20260509101317 | 12 | 0.0 | 0.0 | 0.00 | 1.04 | 0.00 | 93 | 1010.2 | |
| 20260509100317 | 12 | 0.0 | 0.0 | 0.00 | 1.04 | 0.00 | 93 | 1010.2 | |
| 20260509095337 | 12 | 0.0 | 0.0 | 0.00 | 1.04 | 0.00 | 93 | 1010.2 | |
| 20260509094338 | 12 | 0.0 | 0.0 | 0.00 | 1.04 | 0.00 | 93 | 1010.1 | |
| 20260509093316 | 12 | 0.0 | 0.0 | 0.00 | 1.04 | 0.00 | 93 | 1010.0 | |
| 20260509092316 | 12 | 0.0 | 0.0 | 0.00 | 1.04 | 0.00 | 93 | 1010.0 | |
| 20260509091317 | 13 | 0.0 | 0.0 | 0.00 | 1.04 | 0.00 | 93 | 1010.1 | |
| 20260509090317 | 13 | 0.0 | 0.0 | 0.00 | 1.04 | 0.00 | 93 | 1010.1 | |
| 20260509085317 | 13 | 0.0 | 0.0 | 0.00 | 1.04 | 0.00 | 93 | 1010.0 | |
| 20260509084337 | 13 | 0.0 | 0.0 | 0.00 | 1.04 | 0.00 | 93 | 1010.0 | |
| 20260509083317 | 14 | 0.0 | 0.0 | 0.00 | 1.04 | 0.00 | 93 | 1010.1 | |
| 20260509082317 | 13 | 0.0 | 0.0 | 0.00 | 1.04 | 0.00 | 93 | 1010.2 | |
| 20260509081336 | 13 | 0.0 | 0.0 | 0.00 | 1.04 | 0.00 | 92 | 1010.3 | |
| 20260509080316 | 14 | 0.0 | 0.0 | 0.00 | 1.04 | 0.00 | 92 | 1010.3 | |
| 20260509075317 | 14 | 0.0 | 0.0 | 0.00 | 1.04 | 0.00 | 92 | 1010.5 | |
| 20260509074316 | 14 | 0.0 | 0.0 | 0.00 | 1.04 | 0.00 | 92 | 1010.5 | |
| 20260509073316 | 14 | 0.0 | 0.0 | 0.00 | 1.04 | 0.00 | 92 | 1010.5 | |
| 20260509072317 | 14 | 0.0 | 0.0 | 0.00 | 1.04 | 0.00 | 92 | 1010.7 | |
| 20260509071336 | 14 | 0.0 | 0.0 | 0.00 | 1.04 | 0.00 | 92 | 1010.6 | |
| 20260509070316 | 15 | 0.0 | 0.0 | 0.00 | 1.04 | 0.00 | 92 | 1010.6 | |
| 20260509065316 | 15 | 0.0 | 0.0 | 0.00 | 1.04 | 0.00 | 92 | 1010.9 | |
| 20260509064316 | 15 | 23 | 1.6 | 3.2 | 0.00 | 1.04 | 0.00 | 92 | 1010.9 |
| 20260509063316 | 15 | 0.0 | 0.0 | 0.00 | 1.04 | 0.00 | 92 | 1011.0 | |
| 20260509062316 | 15 | 0.0 | 0.0 | 0.00 | 1.04 | 0.00 | 92 | 1011.0 | |
| 20260509061316 | 15 | 0.0 | 0.0 | 0.00 | 1.04 | 0.00 | 92 | 1011.2 | |
| 20260509060316 | 15 | 0.0 | 0.0 | 0.00 | 1.04 | 0.00 | 92 | 1011.4 | |
| 20260509055316 | 16 | 0.0 | 0.0 | 0.00 | 1.04 | 0.00 | 92 | 1011.4 | |
| 20260509054316 | 16 | 23 | 1.6 | 1.6 | 0.00 | 1.04 | 0.00 | 92 | 1011.5 |
| 20260509053316 | 15 | 23 | 1.6 | 3.2 | 0.00 | 1.04 | 0.00 | 92 | 1011.3 |
| 20260509052316 | 15 | 23 | 1.6 | 4.8 | 0.00 | 1.04 | 0.00 | 92 | 1011.1 |
| 20260509051336 | 15 | 23 | 4.8 | 6.4 | 0.00 | 1.04 | 0.00 | 92 | 1010.5 |
| 20260509050336 | 15 | 0 | 6.4 | 8.0 | 0.00 | 1.04 | 0.00 | 92 | 1010.2 |